sensor_id;sensor_type;location;lat;lon;timestamp;P1;durP1;ratioP1;P2;durP2;ratioP2
20810;SDS011;10566;52.928;10.522;2023-04-19T00:00:50;6.90;;;3.10;;
20810;SDS011;10566;52.928;10.522;2023-04-19T00:03:16;7.60;;;2.90;;
20810;SDS011;10566;52.928;10.522;2023-04-19T00:05:42;6.90;;;2.77;;
20810;SDS011;10566;52.928;10.522;2023-04-19T00:08:08;7.23;;;3.03;;
20810;SDS011;10566;52.928;10.522;2023-04-19T00:10:35;6.33;;;2.87;;
20810;SDS011;10566;52.928;10.522;2023-04-19T00:13:02;6.17;;;2.83;;
20810;SDS011;10566;52.928;10.522;2023-04-19T00:15:28;6.73;;;2.70;;
20810;SDS011;10566;52.928;10.522;2023-04-19T00:17:54;6.70;;;2.90;;
20810;SDS011;10566;52.928;10.522;2023-04-19T00:20:20;6.20;;;3.00;;
20810;SDS011;10566;52.928;10.522;2023-04-19T00:22:47;5.60;;;2.77;;
20810;SDS011;10566;52.928;10.522;2023-04-19T00:25:12;8.00;;;2.93;;
20810;SDS011;10566;52.928;10.522;2023-04-19T00:27:39;7.10;;;2.87;;
20810;SDS011;10566;52.928;10.522;2023-04-19T00:30:05;7.10;;;2.63;;
20810;SDS011;10566;52.928;10.522;2023-04-19T00:32:31;7.33;;;3.00;;
20810;SDS011;10566;52.928;10.522;2023-04-19T00:34:57;6.37;;;3.17;;
20810;SDS011;10566;52.928;10.522;2023-04-19T00:37:23;8.00;;;3.33;;
20810;SDS011;10566;52.928;10.522;2023-04-19T00:39:49;6.80;;;3.27;;
20810;SDS011;10566;52.928;10.522;2023-04-19T00:42:15;7.90;;;3.30;;
20810;SDS011;10566;52.928;10.522;2023-04-19T00:44:41;7.70;;;3.63;;
20810;SDS011;10566;52.928;10.522;2023-04-19T00:47:07;7.93;;;3.63;;
20810;SDS011;10566;52.928;10.522;2023-04-19T00:49:33;6.23;;;3.10;;
20810;SDS011;10566;52.928;10.522;2023-04-19T00:51:59;7.27;;;3.20;;
20810;SDS011;10566;52.928;10.522;2023-04-19T00:54:25;7.07;;;3.27;;
20810;SDS011;10566;52.928;10.522;2023-04-19T00:56:52;7.33;;;3.10;;
20810;SDS011;10566;52.928;10.522;2023-04-19T00:59:18;9.23;;;3.40;;
20810;SDS011;10566;52.928;10.522;2023-04-19T01:01:44;11.30;;;3.47;;
20810;SDS011;10566;52.928;10.522;2023-04-19T01:04:10;8.50;;;3.20;;
20810;SDS011;10566;52.928;10.522;2023-04-19T01:06:36;8.27;;;3.50;;
20810;SDS011;10566;52.928;10.522;2023-04-19T01:09:03;8.40;;;3.30;;
20810;SDS011;10566;52.928;10.522;2023-04-19T01:11:29;8.67;;;3.47;;
20810;SDS011;10566;52.928;10.522;2023-04-19T01:13:55;6.00;;;3.00;;
20810;SDS011;10566;52.928;10.522;2023-04-19T01:16:22;8.43;;;3.23;;
20810;SDS011;10566;52.928;10.522;2023-04-19T01:18:48;9.27;;;3.40;;
20810;SDS011;10566;52.928;10.522;2023-04-19T01:21:14;8.10;;;3.20;;
20810;SDS011;10566;52.928;10.522;2023-04-19T01:23:41;6.87;;;3.43;;
20810;SDS011;10566;52.928;10.522;2023-04-19T01:26:07;9.07;;;3.40;;
20810;SDS011;10566;52.928;10.522;2023-04-19T01:28:33;8.37;;;3.30;;
20810;SDS011;10566;52.928;10.522;2023-04-19T01:30:59;7.03;;;3.20;;
20810;SDS011;10566;52.928;10.522;2023-04-19T01:33:25;9.57;;;3.10;;
20810;SDS011;10566;52.928;10.522;2023-04-19T01:35:51;7.27;;;3.30;;
20810;SDS011;10566;52.928;10.522;2023-04-19T01:38:17;6.57;;;2.90;;
20810;SDS011;10566;52.928;10.522;2023-04-19T01:40:43;7.60;;;3.13;;
20810;SDS011;10566;52.928;10.522;2023-04-19T01:43:12;8.10;;;3.20;;
20810;SDS011;10566;52.928;10.522;2023-04-19T01:45:38;6.23;;;2.97;;
20810;SDS011;10566;52.928;10.522;2023-04-19T01:48:04;5.40;;;2.73;;
20810;SDS011;10566;52.928;10.522;2023-04-19T01:50:32;7.43;;;3.23;;
20810;SDS011;10566;52.928;10.522;2023-04-19T01:52:58;7.13;;;3.17;;
20810;SDS011;10566;52.928;10.522;2023-04-19T01:55:24;8.07;;;3.20;;
20810;SDS011;10566;52.928;10.522;2023-04-19T01:57:50;7.20;;;3.17;;
20810;SDS011;10566;52.928;10.522;2023-04-19T02:00:17;7.53;;;2.77;;
20810;SDS011;10566;52.928;10.522;2023-04-19T02:02:43;7.13;;;3.10;;
20810;SDS011;10566;52.928;10.522;2023-04-19T02:05:09;7.17;;;2.80;;
20810;SDS011;10566;52.928;10.522;2023-04-19T02:07:35;7.43;;;3.00;;
20810;SDS011;10566;52.928;10.522;2023-04-19T02:10:02;7.73;;;3.07;;
20810;SDS011;10566;52.928;10.522;2023-04-19T02:12:29;6.93;;;2.77;;
20810;SDS011;10566;52.928;10.522;2023-04-19T02:14:55;8.17;;;3.00;;
20810;SDS011;10566;52.928;10.522;2023-04-19T02:17:24;7.67;;;3.17;;
20810;SDS011;10566;52.928;10.522;2023-04-19T02:19:50;7.20;;;3.00;;
20810;SDS011;10566;52.928;10.522;2023-04-19T02:22:16;6.47;;;2.83;;
20810;SDS011;10566;52.928;10.522;2023-04-19T02:24:42;8.77;;;2.93;;
20810;SDS011;10566;52.928;10.522;2023-04-19T02:27:08;9.00;;;2.80;;
20810;SDS011;10566;52.928;10.522;2023-04-19T02:29:34;11.17;;;3.17;;
20810;SDS011;10566;52.928;10.522;2023-04-19T02:32:00;8.83;;;3.23;;
20810;SDS011;10566;52.928;10.522;2023-04-19T02:34:30;6.57;;;3.13;;
20810;SDS011;10566;52.928;10.522;2023-04-19T02:36:56;7.20;;;2.87;;
20810;SDS011;10566;52.928;10.522;2023-04-19T02:39:24;7.67;;;3.03;;
20810;SDS011;10566;52.928;10.522;2023-04-19T02:41:50;8.73;;;3.30;;
20810;SDS011;10566;52.928;10.522;2023-04-19T02:44:16;6.40;;;2.80;;
20810;SDS011;10566;52.928;10.522;2023-04-19T02:46:51;5.70;;;2.90;;
20810;SDS011;10566;52.928;10.522;2023-04-19T02:49:17;7.83;;;3.17;;
20810;SDS011;10566;52.928;10.522;2023-04-19T02:51:44;7.57;;;3.00;;
20810;SDS011;10566;52.928;10.522;2023-04-19T02:54:10;6.77;;;2.90;;
20810;SDS011;10566;52.928;10.522;2023-04-19T02:56:36;6.57;;;2.83;;
20810;SDS011;10566;52.928;10.522;2023-04-19T02:59:02;6.60;;;2.50;;
20810;SDS011;10566;52.928;10.522;2023-04-19T03:01:28;7.17;;;2.90;;
20810;SDS011;10566;52.928;10.522;2023-04-19T03:03:55;8.53;;;2.80;;
20810;SDS011;10566;52.928;10.522;2023-04-19T03:06:21;5.63;;;2.77;;
20810;SDS011;10566;52.928;10.522;2023-04-19T03:08:47;8.97;;;2.93;;
20810;SDS011;10566;52.928;10.522;2023-04-19T03:11:14;11.00;;;4.00;;
20810;SDS011;10566;52.928;10.522;2023-04-19T03:13:40;7.53;;;3.30;;
20810;SDS011;10566;52.928;10.522;2023-04-19T03:16:06;9.13;;;3.20;;
20810;SDS011;10566;52.928;10.522;2023-04-19T03:18:33;8.00;;;3.20;;
20810;SDS011;10566;52.928;10.522;2023-04-19T03:20:59;6.83;;;3.10;;
20810;SDS011;10566;52.928;10.522;2023-04-19T03:23:25;6.47;;;3.37;;
20810;SDS011;10566;52.928;10.522;2023-04-19T03:25:51;8.80;;;3.33;;
20810;SDS011;10566;52.928;10.522;2023-04-19T03:28:17;7.53;;;3.70;;
20810;SDS011;10566;52.928;10.522;2023-04-19T03:30:43;9.67;;;3.90;;
20810;SDS011;10566;52.928;10.522;2023-04-19T03:33:10;7.67;;;4.03;;
20810;SDS011;10566;52.928;10.522;2023-04-19T03:35:36;7.57;;;3.40;;
20810;SDS011;10566;52.928;10.522;2023-04-19T03:38:02;10.13;;;3.33;;
20810;SDS011;10566;52.928;10.522;2023-04-19T03:40:29;7.30;;;3.67;;
20810;SDS011;10566;52.928;10.522;2023-04-19T03:42:55;9.73;;;3.60;;
20810;SDS011;10566;52.928;10.522;2023-04-19T03:45:21;7.63;;;3.50;;
20810;SDS011;10566;52.928;10.522;2023-04-19T03:47:47;7.43;;;3.30;;
20810;SDS011;10566;52.928;10.522;2023-04-19T03:50:13;7.77;;;3.80;;
20810;SDS011;10566;52.928;10.522;2023-04-19T03:52:39;8.73;;;4.50;;
20810;SDS011;10566;52.928;10.522;2023-04-19T03:55:05;8.37;;;3.93;;
20810;SDS011;10566;52.928;10.522;2023-04-19T03:57:31;10.73;;;4.43;;
20810;SDS011;10566;52.928;10.522;2023-04-19T03:59:57;14.20;;;4.27;;
20810;SDS011;10566;52.928;10.522;2023-04-19T04:02:23;11.60;;;4.90;;
20810;SDS011;10566;52.928;10.522;2023-04-19T04:04:53;10.83;;;4.40;;
20810;SDS011;10566;52.928;10.522;2023-04-19T04:07:19;16.57;;;4.97;;
20810;SDS011;10566;52.928;10.522;2023-04-19T04:09:45;10.70;;;4.37;;
20810;SDS011;10566;52.928;10.522;2023-04-19T04:12:12;15.17;;;5.00;;
20810;SDS011;10566;52.928;10.522;2023-04-19T04:14:38;12.13;;;4.70;;
20810;SDS011;10566;52.928;10.522;2023-04-19T04:17:04;14.23;;;4.33;;
20810;SDS011;10566;52.928;10.522;2023-04-19T04:19:30;9.43;;;4.37;;
20810;SDS011;10566;52.928;10.522;2023-04-19T04:21:56;9.40;;;4.20;;
20810;SDS011;10566;52.928;10.522;2023-04-19T04:24:22;10.67;;;4.23;;
20810;SDS011;10566;52.928;10.522;2023-04-19T04:26:48;10.13;;;3.87;;
20810;SDS011;10566;52.928;10.522;2023-04-19T04:29:15;11.00;;;4.10;;
20810;SDS011;10566;52.928;10.522;2023-04-19T04:31:41;11.80;;;4.20;;
20810;SDS011;10566;52.928;10.522;2023-04-19T04:34:07;10.63;;;4.20;;
20810;SDS011;10566;52.928;10.522;2023-04-19T04:36:34;10.37;;;4.27;;
20810;SDS011;10566;52.928;10.522;2023-04-19T04:39:02;9.43;;;4.10;;
20810;SDS011;10566;52.928;10.522;2023-04-19T04:41:28;10.27;;;4.23;;
20810;SDS011;10566;52.928;10.522;2023-04-19T04:43:55;11.57;;;4.27;;
20810;SDS011;10566;52.928;10.522;2023-04-19T04:46:22;11.07;;;4.00;;
20810;SDS011;10566;52.928;10.522;2023-04-19T04:48:48;13.37;;;3.87;;
20810;SDS011;10566;52.928;10.522;2023-04-19T04:51:14;10.63;;;4.13;;
20810;SDS011;10566;52.928;10.522;2023-04-19T04:53:40;13.97;;;4.03;;
20810;SDS011;10566;52.928;10.522;2023-04-19T04:56:06;10.20;;;4.20;;
20810;SDS011;10566;52.928;10.522;2023-04-19T04:58:33;10.73;;;4.33;;
20810;SDS011;10566;52.928;10.522;2023-04-19T05:00:59;7.97;;;3.67;;
20810;SDS011;10566;52.928;10.522;2023-04-19T05:03:25;11.83;;;4.93;;
20810;SDS011;10566;52.928;10.522;2023-04-19T05:05:51;10.00;;;3.93;;
20810;SDS011;10566;52.928;10.522;2023-04-19T05:08:17;13.23;;;4.33;;
20810;SDS011;10566;52.928;10.522;2023-04-19T05:10:43;11.47;;;3.90;;
20810;SDS011;10566;52.928;10.522;2023-04-19T05:13:09;12.83;;;4.03;;
20810;SDS011;10566;52.928;10.522;2023-04-19T05:15:36;10.33;;;4.23;;
20810;SDS011;10566;52.928;10.522;2023-04-19T05:18:02;7.57;;;3.50;;
20810;SDS011;10566;52.928;10.522;2023-04-19T05:20:28;11.53;;;4.07;;
20810;SDS011;10566;52.928;10.522;2023-04-19T05:22:58;13.27;;;4.23;;
20810;SDS011;10566;52.928;10.522;2023-04-19T05:25:24;15.90;;;4.13;;
20810;SDS011;10566;52.928;10.522;2023-04-19T05:27:50;10.50;;;3.70;;
20810;SDS011;10566;52.928;10.522;2023-04-19T05:30:16;11.53;;;4.77;;
20810;SDS011;10566;52.928;10.522;2023-04-19T05:32:42;9.60;;;3.80;;
20810;SDS011;10566;52.928;10.522;2023-04-19T05:35:09;10.53;;;3.60;;
20810;SDS011;10566;52.928;10.522;2023-04-19T05:37:35;9.30;;;3.60;;
20810;SDS011;10566;52.928;10.522;2023-04-19T05:40:01;11.50;;;3.63;;
20810;SDS011;10566;52.928;10.522;2023-04-19T05:42:29;6.97;;;2.90;;
20810;SDS011;10566;52.928;10.522;2023-04-19T05:44:55;7.27;;;3.23;;
20810;SDS011;10566;52.928;10.522;2023-04-19T05:47:21;6.87;;;3.23;;
20810;SDS011;10566;52.928;10.522;2023-04-19T05:49:48;10.23;;;3.87;;
20810;SDS011;10566;52.928;10.522;2023-04-19T05:52:14;8.20;;;2.97;;
20810;SDS011;10566;52.928;10.522;2023-04-19T05:54:40;8.80;;;3.17;;
20810;SDS011;10566;52.928;10.522;2023-04-19T05:57:07;10.70;;;3.03;;
20810;SDS011;10566;52.928;10.522;2023-04-19T05:59:33;6.83;;;3.10;;
20810;SDS011;10566;52.928;10.522;2023-04-19T06:01:59;5.93;;;2.87;;
20810;SDS011;10566;52.928;10.522;2023-04-19T06:04:26;7.07;;;3.07;;
20810;SDS011;10566;52.928;10.522;2023-04-19T06:06:52;7.97;;;2.93;;
20810;SDS011;10566;52.928;10.522;2023-04-19T06:09:18;7.27;;;2.90;;
20810;SDS011;10566;52.928;10.522;2023-04-19T06:11:44;9.43;;;3.10;;
20810;SDS011;10566;52.928;10.522;2023-04-19T06:14:10;6.43;;;2.40;;
20810;SDS011;10566;52.928;10.522;2023-04-19T06:16:40;5.63;;;2.60;;
20810;SDS011;10566;52.928;10.522;2023-04-19T06:19:06;10.97;;;2.53;;
20810;SDS011;10566;52.928;10.522;2023-04-19T06:21:32;7.13;;;2.23;;
20810;SDS011;10566;52.928;10.522;2023-04-19T06:23:58;5.90;;;1.90;;
20810;SDS011;10566;52.928;10.522;2023-04-19T06:26:24;4.40;;;1.90;;
20810;SDS011;10566;52.928;10.522;2023-04-19T06:28:50;4.70;;;2.00;;
20810;SDS011;10566;52.928;10.522;2023-04-19T06:31:16;4.77;;;1.73;;
20810;SDS011;10566;52.928;10.522;2023-04-19T06:33:42;4.13;;;1.87;;
20810;SDS011;10566;52.928;10.522;2023-04-19T06:36:08;5.00;;;1.80;;
20810;SDS011;10566;52.928;10.522;2023-04-19T06:38:34;5.73;;;1.77;;
20810;SDS011;10566;52.928;10.522;2023-04-19T06:41:02;5.77;;;2.13;;
20810;SDS011;10566;52.928;10.522;2023-04-19T06:43:28;5.80;;;1.70;;
20810;SDS011;10566;52.928;10.522;2023-04-19T06:46:01;7.17;;;2.07;;
20810;SDS011;10566;52.928;10.522;2023-04-19T06:48:28;5.27;;;1.93;;
20810;SDS011;10566;52.928;10.522;2023-04-19T06:50:55;5.47;;;2.10;;
20810;SDS011;10566;52.928;10.522;2023-04-19T06:53:21;5.10;;;1.77;;
20810;SDS011;10566;52.928;10.522;2023-04-19T06:55:47;4.83;;;1.80;;
20810;SDS011;10566;52.928;10.522;2023-04-19T06:58:13;4.90;;;1.53;;
20810;SDS011;10566;52.928;10.522;2023-04-19T07:00:39;4.43;;;1.83;;
20810;SDS011;10566;52.928;10.522;2023-04-19T07:03:05;4.53;;;1.60;;
20810;SDS011;10566;52.928;10.522;2023-04-19T07:05:31;5.10;;;1.77;;
20810;SDS011;10566;52.928;10.522;2023-04-19T07:07:57;7.27;;;2.07;;
20810;SDS011;10566;52.928;10.522;2023-04-19T07:10:23;5.27;;;1.70;;
20810;SDS011;10566;52.928;10.522;2023-04-19T07:12:49;3.53;;;1.70;;
20810;SDS011;10566;52.928;10.522;2023-04-19T07:15:15;6.27;;;1.50;;
20810;SDS011;10566;52.928;10.522;2023-04-19T07:17:41;3.60;;;1.70;;
20810;SDS011;10566;52.928;10.522;2023-04-19T07:20:07;3.57;;;1.40;;
20810;SDS011;10566;52.928;10.522;2023-04-19T07:22:34;5.90;;;1.87;;
20810;SDS011;10566;52.928;10.522;2023-04-19T07:25:00;4.57;;;1.80;;
20810;SDS011;10566;52.928;10.522;2023-04-19T07:27:26;4.50;;;1.63;;
20810;SDS011;10566;52.928;10.522;2023-04-19T07:29:52;4.73;;;1.50;;
20810;SDS011;10566;52.928;10.522;2023-04-19T07:32:18;6.97;;;1.60;;
20810;SDS011;10566;52.928;10.522;2023-04-19T07:34:44;5.17;;;1.73;;
20810;SDS011;10566;52.928;10.522;2023-04-19T07:37:11;6.60;;;1.67;;
20810;SDS011;10566;52.928;10.522;2023-04-19T07:39:37;5.13;;;1.90;;
20810;SDS011;10566;52.928;10.522;2023-04-19T07:42:03;4.30;;;1.63;;
20810;SDS011;10566;52.928;10.522;2023-04-19T07:44:29;4.27;;;1.70;;
20810;SDS011;10566;52.928;10.522;2023-04-19T07:46:55;6.13;;;1.77;;
20810;SDS011;10566;52.928;10.522;2023-04-19T07:49:21;6.37;;;1.97;;
20810;SDS011;10566;52.928;10.522;2023-04-19T07:51:47;5.50;;;1.63;;
20810;SDS011;10566;52.928;10.522;2023-04-19T07:54:13;5.37;;;1.43;;
20810;SDS011;10566;52.928;10.522;2023-04-19T07:56:44;3.30;;;1.47;;
20810;SDS011;10566;52.928;10.522;2023-04-19T07:59:10;6.00;;;2.10;;
20810;SDS011;10566;52.928;10.522;2023-04-19T08:01:37;5.43;;;1.60;;
20810;SDS011;10566;52.928;10.522;2023-04-19T08:04:03;6.57;;;1.73;;
20810;SDS011;10566;52.928;10.522;2023-04-19T08:06:29;5.47;;;1.53;;
20810;SDS011;10566;52.928;10.522;2023-04-19T08:08:56;5.53;;;1.50;;
20810;SDS011;10566;52.928;10.522;2023-04-19T08:11:22;3.67;;;1.47;;
20810;SDS011;10566;52.928;10.522;2023-04-19T08:13:49;4.97;;;1.40;;
20810;SDS011;10566;52.928;10.522;2023-04-19T08:16:15;4.70;;;1.50;;
20810;SDS011;10566;52.928;10.522;2023-04-19T08:18:41;5.33;;;1.63;;
20810;SDS011;10566;52.928;10.522;2023-04-19T08:21:08;6.37;;;1.40;;
20810;SDS011;10566;52.928;10.522;2023-04-19T08:23:34;3.77;;;1.67;;
20810;SDS011;10566;52.928;10.522;2023-04-19T08:26:00;4.53;;;1.60;;
20810;SDS011;10566;52.928;10.522;2023-04-19T08:28:26;4.73;;;1.80;;
20810;SDS011;10566;52.928;10.522;2023-04-19T08:30:53;6.70;;;1.57;;
20810;SDS011;10566;52.928;10.522;2023-04-19T08:33:19;3.73;;;1.50;;
20810;SDS011;10566;52.928;10.522;2023-04-19T08:35:45;5.60;;;1.70;;
20810;SDS011;10566;52.928;10.522;2023-04-19T08:38:11;4.57;;;1.50;;
20810;SDS011;10566;52.928;10.522;2023-04-19T08:40:41;5.07;;;1.40;;
20810;SDS011;10566;52.928;10.522;2023-04-19T08:43:10;3.50;;;1.40;;
20810;SDS011;10566;52.928;10.522;2023-04-19T08:45:36;3.60;;;1.50;;
20810;SDS011;10566;52.928;10.522;2023-04-19T08:48:03;7.93;;;1.70;;
20810;SDS011;10566;52.928;10.522;2023-04-19T08:50:29;3.13;;;1.30;;
20810;SDS011;10566;52.928;10.522;2023-04-19T08:52:57;2.93;;;1.27;;
20810;SDS011;10566;52.928;10.522;2023-04-19T08:55:24;4.93;;;1.40;;
20810;SDS011;10566;52.928;10.522;2023-04-19T08:57:50;3.47;;;1.50;;
20810;SDS011;10566;52.928;10.522;2023-04-19T09:00:16;4.90;;;1.80;;
20810;SDS011;10566;52.928;10.522;2023-04-19T09:02:43;5.80;;;1.60;;
20810;SDS011;10566;52.928;10.522;2023-04-19T09:05:10;4.40;;;1.67;;
20810;SDS011;10566;52.928;10.522;2023-04-19T09:07:37;3.67;;;1.47;;
20810;SDS011;10566;52.928;10.522;2023-04-19T09:10:04;4.43;;;1.60;;
20810;SDS011;10566;52.928;10.522;2023-04-19T09:12:31;3.60;;;1.17;;
20810;SDS011;10566;52.928;10.522;2023-04-19T09:14:58;4.00;;;1.50;;
20810;SDS011;10566;52.928;10.522;2023-04-19T09:17:24;8.73;;;1.80;;
20810;SDS011;10566;52.928;10.522;2023-04-19T09:19:50;4.30;;;1.50;;
20810;SDS011;10566;52.928;10.522;2023-04-19T09:22:17;4.43;;;1.60;;
20810;SDS011;10566;52.928;10.522;2023-04-19T09:24:43;5.17;;;1.60;;
20810;SDS011;10566;52.928;10.522;2023-04-19T09:27:09;5.83;;;1.70;;
20810;SDS011;10566;52.928;10.522;2023-04-19T09:29:36;4.00;;;1.90;;
20810;SDS011;10566;52.928;10.522;2023-04-19T09:32:02;4.47;;;1.43;;
20810;SDS011;10566;52.928;10.522;2023-04-19T09:34:28;4.93;;;1.60;;
20810;SDS011;10566;52.928;10.522;2023-04-19T09:36:55;5.03;;;1.60;;
20810;SDS011;10566;52.928;10.522;2023-04-19T09:39:30;5.27;;;1.60;;
20810;SDS011;10566;52.928;10.522;2023-04-19T09:41:56;4.73;;;1.67;;
20810;SDS011;10566;52.928;10.522;2023-04-19T09:44:22;5.97;;;1.80;;
20810;SDS011;10566;52.928;10.522;2023-04-19T09:46:48;4.90;;;1.57;;
20810;SDS011;10566;52.928;10.522;2023-04-19T09:49:17;4.53;;;1.53;;
20810;SDS011;10566;52.928;10.522;2023-04-19T09:51:44;5.70;;;1.80;;
20810;SDS011;10566;52.928;10.522;2023-04-19T09:54:11;5.53;;;1.60;;
20810;SDS011;10566;52.928;10.522;2023-04-19T09:56:37;6.67;;;2.10;;
20810;SDS011;10566;52.928;10.522;2023-04-19T09:59:03;5.97;;;1.90;;
20810;SDS011;10566;52.928;10.522;2023-04-19T10:01:30;4.70;;;1.63;;
20810;SDS011;10566;52.928;10.522;2023-04-19T10:03:59;5.30;;;1.73;;
20810;SDS011;10566;52.928;10.522;2023-04-19T10:06:25;4.70;;;2.00;;
20810;SDS011;10566;52.928;10.522;2023-04-19T10:08:52;7.97;;;2.10;;
20810;SDS011;10566;52.928;10.522;2023-04-19T10:11:20;5.93;;;2.40;;
20810;SDS011;10566;52.928;10.522;2023-04-19T10:13:46;5.03;;;1.73;;
20810;SDS011;10566;52.928;10.522;2023-04-19T10:16:13;5.60;;;1.90;;
20810;SDS011;10566;52.928;10.522;2023-04-19T10:18:39;3.90;;;1.60;;
20810;SDS011;10566;52.928;10.522;2023-04-19T10:21:06;4.67;;;1.93;;
20810;SDS011;10566;52.928;10.522;2023-04-19T10:23:33;6.23;;;1.67;;
20810;SDS011;10566;52.928;10.522;2023-04-19T10:25:59;6.13;;;1.97;;
20810;SDS011;10566;52.928;10.522;2023-04-19T10:28:28;3.80;;;1.77;;
20810;SDS011;10566;52.928;10.522;2023-04-19T10:30:58;4.03;;;1.83;;
20810;SDS011;10566;52.928;10.522;2023-04-19T10:33:29;4.20;;;2.00;;
20810;SDS011;10566;52.928;10.522;2023-04-19T10:35:56;5.97;;;1.70;;
20810;SDS011;10566;52.928;10.522;2023-04-19T10:41:01;4.57;;;1.67;;
20810;SDS011;10566;52.928;10.522;2023-04-19T10:43:35;5.83;;;2.10;;
20810;SDS011;10566;52.928;10.522;2023-04-19T10:48:31;9.07;;;1.90;;
20810;SDS011;10566;52.928;10.522;2023-04-19T10:56:08;8.33;;;2.20;;
20810;SDS011;10566;52.928;10.522;2023-04-19T11:03:57;6.17;;;1.90;;
20810;SDS011;10566;52.928;10.522;2023-04-19T11:06:23;5.93;;;2.30;;
20810;SDS011;10566;52.928;10.522;2023-04-19T11:08:52;9.03;;;2.60;;
20810;SDS011;10566;52.928;10.522;2023-04-19T11:11:18;7.30;;;2.60;;
20810;SDS011;10566;52.928;10.522;2023-04-19T11:13:48;5.20;;;2.15;;
20810;SDS011;10566;52.928;10.522;2023-04-19T11:16:14;5.60;;;2.00;;
20810;SDS011;10566;52.928;10.522;2023-04-19T11:18:40;5.38;;;2.13;;
20810;SDS011;10566;52.928;10.522;2023-04-19T11:21:06;6.43;;;2.35;;
20810;SDS011;10566;52.928;10.522;2023-04-19T11:23:37;5.40;;;2.03;;
20810;SDS011;10566;52.928;10.522;2023-04-19T11:26:03;6.93;;;2.30;;
20810;SDS011;10566;52.928;10.522;2023-04-19T11:28:31;8.93;;;2.20;;
20810;SDS011;10566;52.928;10.522;2023-04-19T11:30:58;8.02;;;2.50;;
20810;SDS011;10566;52.928;10.522;2023-04-19T11:33:24;5.67;;;2.30;;
20810;SDS011;10566;52.928;10.522;2023-04-19T11:35:51;5.53;;;2.67;;
20810;SDS011;10566;52.928;10.522;2023-04-19T11:38:17;6.03;;;2.58;;
20810;SDS011;10566;52.928;10.522;2023-04-19T11:40:43;7.28;;;2.47;;
20810;SDS011;10566;52.928;10.522;2023-04-19T11:43:09;4.80;;;2.42;;
20810;SDS011;10566;52.928;10.522;2023-04-19T11:45:35;8.70;;;2.63;;
20810;SDS011;10566;52.928;10.522;2023-04-19T11:48:05;6.33;;;2.90;;
20810;SDS011;10566;52.928;10.522;2023-04-19T11:50:32;9.20;;;2.50;;
20810;SDS011;10566;52.928;10.522;2023-04-19T11:53:01;8.03;;;2.33;;
20810;SDS011;10566;52.928;10.522;2023-04-19T11:55:34;9.83;;;2.13;;
20810;SDS011;10566;52.928;10.522;2023-04-19T11:58:00;7.13;;;2.60;;
20810;SDS011;10566;52.928;10.522;2023-04-19T12:00:26;7.80;;;2.70;;
20810;SDS011;10566;52.928;10.522;2023-04-19T12:02:56;6.13;;;2.70;;
20810;SDS011;10566;52.928;10.522;2023-04-19T12:05:22;7.03;;;2.90;;
20810;SDS011;10566;52.928;10.522;2023-04-19T12:10:23;7.77;;;2.50;;
20810;SDS011;10566;52.928;10.522;2023-04-19T12:12:49;6.23;;;2.47;;
20810;SDS011;10566;52.928;10.522;2023-04-19T12:15:15;7.17;;;2.83;;
20810;SDS011;10566;52.928;10.522;2023-04-19T12:18:00;7.43;;;2.17;;
20810;SDS011;10566;52.928;10.522;2023-04-19T12:20:32;8.03;;;2.37;;
20810;SDS011;10566;52.928;10.522;2023-04-19T12:22:59;5.13;;;2.50;;
20810;SDS011;10566;52.928;10.522;2023-04-19T12:25:32;10.47;;;1.97;;
20810;SDS011;10566;52.928;10.522;2023-04-19T12:28:01;6.60;;;2.53;;
20810;SDS011;10566;52.928;10.522;2023-04-19T12:30:27;8.90;;;2.70;;
20810;SDS011;10566;52.928;10.522;2023-04-19T12:32:53;6.33;;;2.20;;
20810;SDS011;10566;52.928;10.522;2023-04-19T12:35:20;10.07;;;2.70;;
20810;SDS011;10566;52.928;10.522;2023-04-19T12:37:46;6.80;;;2.60;;
20810;SDS011;10566;52.928;10.522;2023-04-19T12:40:13;7.13;;;2.57;;
20810;SDS011;10566;52.928;10.522;2023-04-19T12:42:39;7.97;;;2.80;;
20810;SDS011;10566;52.928;10.522;2023-04-19T12:45:05;6.40;;;2.57;;
20810;SDS011;10566;52.928;10.522;2023-04-19T12:47:31;8.97;;;2.60;;
20810;SDS011;10566;52.928;10.522;2023-04-19T12:49:57;5.40;;;2.37;;
20810;SDS011;10566;52.928;10.522;2023-04-19T12:52:23;6.73;;;2.50;;
20810;SDS011;10566;52.928;10.522;2023-04-19T12:54:49;5.00;;;1.90;;
20810;SDS011;10566;52.928;10.522;2023-04-19T12:57:15;5.97;;;2.47;;
20810;SDS011;10566;52.928;10.522;2023-04-19T12:59:41;7.57;;;2.50;;
20810;SDS011;10566;52.928;10.522;2023-04-19T13:02:07;6.70;;;2.50;;
20810;SDS011;10566;52.928;10.522;2023-04-19T13:04:32;6.07;;;2.67;;
20810;SDS011;10566;52.928;10.522;2023-04-19T13:06:59;9.00;;;2.70;;
20810;SDS011;10566;52.928;10.522;2023-04-19T13:09:26;9.13;;;2.70;;
20810;SDS011;10566;52.928;10.522;2023-04-19T13:11:55;5.17;;;2.50;;
20810;SDS011;10566;52.928;10.522;2023-04-19T13:14:21;5.97;;;2.20;;
20810;SDS011;10566;52.928;10.522;2023-04-19T13:16:47;9.70;;;2.73;;
20810;SDS011;10566;52.928;10.522;2023-04-19T13:19:13;93.93;;;8.67;;
20810;SDS011;10566;52.928;10.522;2023-04-19T13:21:40;7.27;;;2.47;;
20810;SDS011;10566;52.928;10.522;2023-04-19T13:24:06;21.03;;;2.67;;
20810;SDS011;10566;52.928;10.522;2023-04-19T13:26:32;8.90;;;2.80;;
20810;SDS011;10566;52.928;10.522;2023-04-19T13:28:58;12.37;;;3.00;;
20810;SDS011;10566;52.928;10.522;2023-04-19T13:31:24;64.80;;;6.70;;
20810;SDS011;10566;52.928;10.522;2023-04-19T13:33:51;51.77;;;5.13;;
20810;SDS011;10566;52.928;10.522;2023-04-19T13:36:17;11.13;;;2.50;;
20810;SDS011;10566;52.928;10.522;2023-04-19T13:38:43;8.90;;;2.40;;
20810;SDS011;10566;52.928;10.522;2023-04-19T13:41:09;10.20;;;2.50;;
20810;SDS011;10566;52.928;10.522;2023-04-19T13:43:35;5.40;;;2.10;;
20810;SDS011;10566;52.928;10.522;2023-04-19T13:46:01;6.40;;;2.57;;
20810;SDS011;10566;52.928;10.522;2023-04-19T13:48:27;51.67;;;6.43;;
20810;SDS011;10566;52.928;10.522;2023-04-19T13:50:56;13.43;;;2.60;;
20810;SDS011;10566;52.928;10.522;2023-04-19T13:53:23;14.87;;;2.60;;
20810;SDS011;10566;52.928;10.522;2023-04-19T13:55:49;25.63;;;3.83;;
20810;SDS011;10566;52.928;10.522;2023-04-19T13:58:16;10.20;;;2.63;;
20810;SDS011;10566;52.928;10.522;2023-04-19T14:00:42;10.10;;;2.33;;
20810;SDS011;10566;52.928;10.522;2023-04-19T14:03:08;7.23;;;2.20;;
20810;SDS011;10566;52.928;10.522;2023-04-19T14:05:35;6.53;;;1.77;;
20810;SDS011;10566;52.928;10.522;2023-04-19T14:08:01;6.77;;;2.03;;
20810;SDS011;10566;52.928;10.522;2023-04-19T14:10:27;10.77;;;2.50;;
20810;SDS011;10566;52.928;10.522;2023-04-19T14:12:52;7.67;;;2.80;;
20810;SDS011;10566;52.928;10.522;2023-04-19T14:15:19;6.63;;;2.00;;
20810;SDS011;10566;52.928;10.522;2023-04-19T14:17:45;5.97;;;2.00;;
20810;SDS011;10566;52.928;10.522;2023-04-19T14:20:11;9.33;;;2.37;;
20810;SDS011;10566;52.928;10.522;2023-04-19T14:22:38;8.83;;;2.30;;
20810;SDS011;10566;52.928;10.522;2023-04-19T14:25:04;9.00;;;2.50;;
20810;SDS011;10566;52.928;10.522;2023-04-19T14:27:30;11.73;;;2.30;;
20810;SDS011;10566;52.928;10.522;2023-04-19T14:29:57;6.23;;;2.43;;
20810;SDS011;10566;52.928;10.522;2023-04-19T14:32:23;10.07;;;2.50;;
20810;SDS011;10566;52.928;10.522;2023-04-19T14:34:49;5.77;;;2.53;;
20810;SDS011;10566;52.928;10.522;2023-04-19T14:37:15;8.73;;;2.63;;
20810;SDS011;10566;52.928;10.522;2023-04-19T14:39:43;6.37;;;2.53;;
20810;SDS011;10566;52.928;10.522;2023-04-19T14:42:09;5.27;;;2.53;;
20810;SDS011;10566;52.928;10.522;2023-04-19T14:44:35;5.53;;;2.40;;
20810;SDS011;10566;52.928;10.522;2023-04-19T14:47:01;8.97;;;2.40;;